Terminal Aerodrome Forecast
Issued by NWS Charleston, WV

Current Version | Previous Version | Text Only | Print | Product List | Glossary Off
Versions: 1 2 3 4 5 6 7 8 9 10 11 12 13 14 15 16 17 18 19 20 21 22 23 24

549
FTUS41 KRLX 170540 AAB
TAFHTS
TAF AMD
KHTS 170540Z 1706/1806 10005KT 4SM BR OVC070
     FM170800 17004KT 3SM -SHRA OVC070
     FM171100 19006KT 3SM -SHRA OVC025
     FM171400 20009G15KT 6SM -SHRA OVC025
     FM180000 26007KT P6SM BKN015=

USA.gov is the U.S. government's official web portal to all federal, state and local government web resources and services.